createdAt,value
2023-04-18T00:01:44.504Z,100.00
2023-04-18T00:04:12.118Z,100.00
2023-04-18T00:06:39.227Z,100.00
2023-04-18T00:09:06.215Z,100.00
2023-04-18T00:11:33.026Z,100.00
2023-04-18T00:13:59.764Z,100.00
2023-04-18T00:16:28.304Z,100.00
2023-04-18T00:18:55.423Z,100.00
2023-04-18T00:21:22.646Z,100.00
2023-04-18T00:23:49.403Z,100.00
2023-04-18T00:26:16.111Z,100.00
2023-04-18T00:28:42.771Z,100.00
2023-04-18T00:31:09.599Z,100.00
2023-04-18T00:33:36.321Z,100.00
2023-04-18T00:36:03.413Z,100.00
2023-04-18T00:38:30.135Z,100.00
2023-04-18T00:40:56.849Z,100.00
2023-04-18T00:43:24.642Z,100.00
2023-04-18T00:45:51.350Z,100.00
2023-04-18T00:48:18.361Z,100.00
2023-04-18T00:50:45.361Z,100.00
2023-04-18T00:53:12.962Z,100.00
2023-04-18T00:55:40.636Z,100.00
2023-04-18T00:58:07.381Z,100.00
2023-04-18T01:00:34.214Z,100.00
2023-04-18T01:03:00.949Z,100.00
2023-04-18T01:05:27.802Z,100.00
2023-04-18T01:08:00.308Z,100.00
2023-04-18T01:10:28.534Z,100.00
2023-04-18T01:13:12.125Z,100.00
2023-04-18T01:15:43.287Z,100.00
2023-04-18T01:18:10.911Z,100.00
2023-04-18T01:20:41.574Z,100.00
2023-04-18T01:23:10.358Z,100.00
2023-04-18T01:25:37.386Z,100.00
2023-04-18T01:28:04.607Z,100.00
2023-04-18T01:30:31.300Z,100.00
2023-04-18T01:32:58.002Z,100.00
2023-04-18T01:35:24.798Z,100.00
2023-04-18T01:37:51.515Z,100.00
2023-04-18T01:40:18.274Z,100.00
2023-04-18T01:42:44.980Z,100.00
2023-04-18T01:45:13.109Z,100.00
2023-04-18T01:47:39.887Z,100.00
2023-04-18T01:50:07.160Z,100.00
2023-04-18T01:52:33.971Z,100.00
2023-04-18T01:55:02.153Z,100.00
2023-04-18T01:57:28.983Z,100.00
2023-04-18T01:59:55.680Z,100.00
2023-04-18T02:02:22.425Z,100.00
2023-04-18T02:04:49.170Z,100.00
2023-04-18T02:07:15.914Z,100.00
2023-04-18T02:09:42.534Z,100.00
2023-04-18T02:12:09.494Z,100.00
2023-04-18T02:14:36.499Z,100.00
2023-04-18T02:17:03.183Z,100.00
2023-04-18T02:19:29.986Z,100.00
2023-04-18T02:21:56.679Z,100.00
2023-04-18T02:24:23.340Z,100.00
2023-04-18T02:26:50.586Z,100.00
2023-04-18T02:29:17.300Z,100.00
2023-04-18T02:31:44.086Z,100.00
2023-04-18T02:34:10.828Z,100.00
2023-04-18T02:36:37.502Z,100.00
2023-04-18T02:39:04.082Z,100.00
2023-04-18T02:41:31.205Z,100.00
2023-04-18T02:43:58.147Z,100.00
2023-04-18T02:46:25.266Z,100.00
2023-04-18T02:48:51.996Z,100.00
2023-04-18T02:51:20.013Z,100.00
2023-04-18T02:53:46.778Z,100.00
2023-04-18T02:56:17.074Z,100.00
2023-04-18T02:58:43.759Z,100.00
2023-04-18T03:01:10.430Z,100.00
2023-04-18T03:03:37.052Z,100.00
2023-04-18T03:06:03.809Z,100.00
2023-04-18T03:08:30.624Z,100.00
2023-04-18T03:10:57.312Z,100.00
2023-04-18T03:13:25.132Z,100.00
2023-04-18T03:15:51.869Z,100.00
2023-04-18T03:18:18.512Z,100.00
2023-04-18T03:20:45.225Z,100.00
2023-04-18T03:23:11.892Z,100.00
2023-04-18T03:25:38.568Z,100.00
2023-04-18T03:28:05.400Z,100.00
2023-04-18T03:30:32.486Z,100.00
2023-04-18T03:32:59.527Z,100.00
2023-04-18T03:35:26.283Z,100.00
2023-04-18T03:37:52.930Z,100.00
2023-04-18T03:40:19.522Z,100.00
2023-04-18T03:42:46.186Z,100.00
2023-04-18T03:45:12.836Z,100.00
2023-04-18T03:47:39.671Z,100.00
2023-04-18T03:50:06.798Z,100.00
2023-04-18T03:52:33.479Z,100.00
2023-04-18T03:55:00.224Z,100.00
2023-04-18T03:57:26.887Z,100.00
2023-04-18T03:59:54.137Z,100.00
2023-04-18T04:02:21.008Z,100.00
2023-04-18T04:04:47.839Z,100.00
2023-04-18T04:07:14.731Z,100.00
2023-04-18T04:09:41.378Z,100.00
2023-04-18T04:12:08.086Z,100.00
2023-04-18T04:14:34.760Z,100.00
2023-04-18T04:17:01.484Z,100.00
2023-04-18T04:19:28.229Z,100.00
2023-04-18T04:21:54.948Z,100.00
2023-04-18T04:24:22.696Z,100.00
2023-04-18T04:26:50.713Z,100.00
2023-04-18T04:29:18.957Z,100.00
2023-04-18T04:31:45.816Z,100.00
2023-04-18T04:34:12.809Z,100.00
2023-04-18T04:36:41.159Z,100.00
2023-04-18T04:39:08.673Z,100.00
2023-04-18T04:41:37.582Z,100.00
2023-04-18T04:44:04.808Z,100.00
2023-04-18T04:46:31.783Z,100.00
2023-04-18T04:48:58.527Z,100.00
2023-04-18T04:51:25.762Z,100.00
2023-04-18T04:53:52.408Z,100.00
2023-04-18T04:56:19.225Z,100.00
2023-04-18T04:58:45.889Z,100.00
2023-04-18T05:01:12.927Z,100.00
2023-04-18T05:03:39.723Z,100.00
2023-04-18T05:06:06.586Z,100.00
2023-04-18T05:08:33.261Z,100.00
2023-04-18T05:11:02.093Z,100.00
2023-04-18T05:13:28.699Z,100.00
2023-04-18T05:15:55.620Z,100.00
2023-04-18T05:18:22.332Z,100.00
2023-04-18T05:20:49.344Z,100.00
2023-04-18T05:23:16.231Z,100.00
2023-04-18T05:25:42.939Z,100.00
2023-04-18T05:28:09.647Z,100.00
2023-04-18T05:30:36.349Z,100.00
2023-04-18T05:33:03.516Z,100.00
2023-04-18T05:35:30.890Z,100.00
2023-04-18T05:37:58.350Z,100.00
2023-04-18T05:40:27.198Z,100.00
2023-04-18T05:42:53.835Z,100.00
2023-04-18T05:45:20.495Z,100.00
2023-04-18T05:47:47.164Z,100.00
2023-04-18T05:50:14.080Z,100.00
2023-04-18T05:52:41.109Z,100.00
2023-04-18T05:55:08.035Z,100.00
2023-04-18T05:57:34.784Z,100.00
2023-04-18T06:00:01.643Z,100.00
2023-04-18T06:02:28.662Z,100.00
2023-04-18T06:04:56.707Z,100.00
2023-04-18T06:07:25.278Z,100.00
2023-04-18T06:09:53.372Z,100.00
2023-04-18T06:12:20.545Z,100.00
2023-04-18T06:14:47.167Z,100.00
2023-04-18T06:17:14.011Z,100.00
2023-04-18T06:19:40.727Z,100.00
2023-04-18T06:22:07.394Z,100.00
2023-04-18T06:24:34.085Z,100.00
2023-04-18T06:27:01.900Z,100.00
2023-04-18T06:29:30.477Z,100.00
2023-04-18T06:31:57.888Z,100.00
2023-04-18T06:34:24.767Z,100.00
2023-04-18T06:36:52.237Z,100.00
2023-04-18T06:39:19.007Z,100.00
2023-04-18T06:41:45.766Z,100.00
2023-04-18T06:44:12.413Z,100.00
2023-04-18T06:46:39.018Z,100.00
2023-04-18T06:49:05.797Z,100.00
2023-04-18T06:51:32.573Z,100.00
2023-04-18T06:53:59.282Z,100.00
2023-04-18T06:56:26.217Z,100.00
2023-04-18T06:58:52.887Z,100.00
2023-04-18T07:01:19.836Z,100.00
2023-04-18T07:03:46.769Z,100.00
2023-04-18T07:06:13.621Z,100.00
2023-04-18T07:08:40.396Z,100.00
2023-04-18T07:11:07.041Z,100.00
2023-04-18T07:13:33.721Z,100.00
2023-04-18T07:16:01.334Z,100.00
2023-04-18T07:18:37.560Z,100.00
2023-04-18T07:21:08.939Z,100.00
2023-04-18T07:23:36.237Z,100.00
2023-04-18T07:26:03.376Z,100.00
2023-04-18T07:28:31.831Z,100.00
2023-04-18T07:30:59.191Z,100.00
2023-04-18T07:33:25.906Z,100.00
2023-04-18T07:35:53.242Z,100.00
2023-04-18T07:38:20.567Z,100.00
2023-04-18T07:40:47.360Z,100.00
2023-04-18T07:43:14.066Z,100.00
2023-04-18T07:45:43.114Z,100.00
2023-04-18T07:48:09.883Z,100.00
2023-04-18T07:50:36.540Z,100.00
2023-04-18T07:53:03.471Z,100.00
2023-04-18T07:55:30.719Z,100.00
2023-04-18T07:57:57.479Z,100.00
2023-04-18T08:00:24.587Z,100.00
2023-04-18T08:02:51.579Z,100.00
2023-04-18T08:05:21.458Z,100.00
2023-04-18T08:07:48.155Z,100.00
2023-04-18T08:10:14.877Z,100.00
2023-04-18T08:12:41.967Z,100.00
2023-04-18T08:15:09.068Z,100.00
2023-04-18T08:17:36.410Z,100.00
2023-04-18T08:20:07.482Z,100.00
2023-04-18T08:22:34.252Z,100.00
2023-04-18T08:25:05.456Z,100.00
2023-04-18T08:27:33.164Z,100.00
2023-04-18T08:30:00.496Z,100.00
2023-04-18T08:32:27.273Z,100.00
2023-04-18T08:34:53.992Z,100.00
2023-04-18T08:37:20.753Z,100.00
2023-04-18T08:39:47.422Z,100.00
2023-04-18T08:42:19.218Z,100.00
2023-04-18T08:44:47.284Z,100.00
2023-04-18T08:47:14.725Z,100.00
2023-04-18T08:49:43.794Z,100.00
2023-04-18T08:52:13.495Z,100.00
2023-04-18T08:54:45.211Z,100.00
2023-04-18T08:57:16.648Z,100.00
2023-04-18T08:59:46.794Z,100.00
2023-04-18T09:02:15.612Z,100.00
2023-04-18T09:04:45.303Z,100.00
2023-04-18T09:07:14.520Z,100.00
2023-04-18T09:09:53.381Z,100.00
2023-04-18T09:12:25.428Z,100.00
2023-04-18T09:15:14.183Z,100.00
2023-04-18T09:17:43.489Z,100.00
2023-04-18T09:20:12.153Z,100.00
2023-04-18T09:22:52.158Z,100.00
2023-04-18T09:25:39.860Z,100.00
2023-04-18T09:28:28.745Z,100.00
2023-04-18T09:31:09.149Z,100.00
2023-04-18T09:33:37.081Z,100.00
2023-04-18T09:36:31.338Z,100.00
2023-04-18T09:38:58.221Z,100.00
2023-04-18T09:41:24.885Z,100.00
2023-04-18T09:44:12.310Z,100.00
2023-04-18T09:46:40.896Z,100.00
2023-04-18T09:49:09.684Z,100.00
2023-04-18T09:51:40.313Z,100.00
2023-04-18T09:54:09.266Z,100.00
2023-04-18T09:56:38.010Z,100.00
2023-04-18T09:59:09.844Z,100.00
2023-04-18T10:01:37.116Z,100.00
2023-04-18T10:04:06.555Z,100.00
2023-04-18T10:06:41.903Z,100.00
2023-04-18T10:09:09.706Z,100.00
2023-04-18T10:11:36.848Z,100.00
2023-04-18T10:14:07.836Z,100.00
2023-04-18T10:16:36.384Z,100.00
2023-04-18T10:19:32.589Z,100.00
2023-04-18T10:22:01.466Z,100.00
2023-04-18T10:24:49.678Z,100.00
2023-04-18T10:27:17.673Z,100.00
2023-04-18T10:29:54.566Z,100.00
2023-04-18T10:32:24.104Z,100.00
2023-04-18T10:34:53.468Z,100.00
2023-04-18T10:37:20.227Z,100.00
2023-04-18T10:39:48.352Z,100.00
2023-04-18T10:42:14.979Z,100.00
2023-04-18T10:44:41.672Z,100.00
2023-04-18T10:47:08.420Z,100.00
2023-04-18T10:49:38.048Z,100.00
2023-04-18T10:52:08.567Z,100.00
2023-04-18T10:54:38.834Z,100.00
2023-04-18T10:57:07.629Z,100.00
2023-04-18T10:59:38.624Z,100.00
2023-04-18T11:02:26.281Z,100.00
2023-04-18T11:04:54.655Z,100.00
2023-04-18T11:07:34.673Z,100.00
2023-04-18T11:10:02.052Z,100.00
2023-04-18T11:12:32.364Z,100.00
2023-04-18T11:15:03.226Z,100.00
2023-04-18T11:17:32.823Z,100.00
2023-04-18T11:20:11.481Z,100.00
2023-04-18T11:22:49.192Z,100.00
2023-04-18T11:25:16.969Z,100.00
2023-04-18T11:27:47.957Z,100.00
2023-04-18T11:30:15.619Z,100.00
2023-04-18T11:32:42.377Z,100.00
2023-04-18T11:35:11.284Z,100.00
2023-04-18T11:37:39.245Z,100.00
2023-04-18T11:40:08.475Z,100.00
2023-04-18T11:42:37.309Z,100.00
2023-04-18T11:45:04.497Z,100.00
2023-04-18T11:47:34.270Z,100.00
2023-04-18T11:50:03.276Z,100.00
2023-04-18T11:52:31.280Z,100.00
2023-04-18T11:55:14.593Z,100.00
2023-04-18T11:57:41.924Z,100.00
2023-04-18T12:00:10.720Z,100.00
2023-04-18T12:02:46.051Z,100.00
2023-04-18T12:05:25.208Z,100.00
2023-04-18T12:07:52.114Z,100.00
2023-04-18T12:10:29.741Z,100.00
2023-04-18T12:12:59.793Z,100.00
2023-04-18T12:15:28.626Z,100.00
2023-04-18T12:18:04.916Z,100.00
2023-04-18T12:20:46.042Z,100.00
2023-04-18T12:23:48.172Z,99.94
2023-04-18T12:26:20.231Z,100.00
2023-04-18T12:28:50.142Z,94.25
2023-04-18T12:31:17.238Z,98.20
2023-04-18T12:33:43.918Z,95.78
2023-04-18T12:36:11.130Z,93.51
2023-04-18T12:38:37.827Z,95.71
2023-04-18T12:41:05.408Z,100.00
2023-04-18T12:43:32.551Z,94.67
2023-04-18T12:45:59.838Z,91.97
2023-04-18T12:48:26.559Z,95.52
2023-04-18T12:50:53.246Z,88.92
2023-04-18T12:53:20.294Z,91.17
2023-04-18T12:55:47.043Z,89.70
2023-04-18T12:58:18.466Z,88.79
2023-04-18T13:00:45.176Z,85.32
2023-04-18T13:03:13.371Z,90.84
2023-04-18T13:05:40.504Z,83.75
2023-04-18T13:08:16.352Z,80.25
2023-04-18T13:10:45.604Z,79.61
2023-04-18T13:13:12.329Z,80.80
2023-04-18T13:15:39.069Z,86.80
2023-04-18T13:18:06.740Z,79.73
2023-04-18T13:20:34.350Z,78.27
2023-04-18T13:23:02.693Z,78.34
2023-04-18T13:25:29.352Z,89.94
2023-04-18T13:27:57.474Z,87.62
2023-04-18T13:30:24.217Z,86.10
2023-04-18T13:32:50.946Z,84.23
2023-04-18T13:35:17.658Z,86.32
2023-04-18T13:37:44.454Z,85.07
2023-04-18T13:40:11.701Z,82.02
2023-04-18T13:42:38.719Z,79.81
2023-04-18T13:45:05.962Z,85.67
2023-04-18T13:47:34.208Z,89.08
2023-04-18T13:50:01.053Z,84.10
2023-04-18T13:52:27.859Z,91.40
2023-04-18T13:54:54.528Z,90.05
2023-04-18T13:57:21.953Z,91.29
2023-04-18T13:59:48.682Z,90.08
2023-04-18T14:02:15.743Z,89.27
2023-04-18T14:04:42.616Z,88.31
2023-04-18T14:07:09.441Z,84.17
2023-04-18T14:09:36.252Z,84.11
2023-04-18T14:12:03.119Z,88.75
2023-04-18T14:14:29.964Z,88.62
2023-04-18T14:16:56.836Z,87.82
2023-04-18T14:19:23.577Z,82.66
2023-04-18T14:21:50.271Z,82.49
2023-04-18T14:24:16.936Z,89.21
2023-04-18T14:26:43.926Z,88.04
2023-04-18T14:29:11.123Z,90.78
2023-04-18T14:31:38.037Z,95.72
2023-04-18T14:34:05.550Z,94.53
2023-04-18T14:36:32.737Z,99.33
2023-04-18T14:38:59.398Z,92.73
2023-04-18T14:41:26.168Z,86.17
2023-04-18T14:43:53.041Z,82.49
2023-04-18T14:46:20.957Z,81.62
2023-04-18T14:48:47.683Z,84.80
2023-04-18T14:51:17.260Z,91.92
2023-04-18T14:53:44.656Z,92.72
2023-04-18T14:56:11.704Z,92.57
2023-04-18T14:58:38.498Z,91.89
2023-04-18T15:01:05.938Z,88.01
2023-04-18T15:03:33.177Z,89.09
2023-04-18T15:06:00.265Z,84.62
2023-04-18T15:08:27.006Z,84.42
2023-04-18T15:10:53.686Z,90.46
2023-04-18T15:13:20.447Z,89.19
2023-04-18T15:15:53.936Z,88.69
2023-04-18T15:18:20.920Z,89.24
2023-04-18T15:20:47.559Z,87.47
2023-04-18T15:23:14.810Z,87.12
2023-04-18T15:25:42.302Z,88.87
2023-04-18T15:28:09.172Z,96.64
2023-04-18T15:30:36.035Z,96.38
2023-04-18T15:33:02.802Z,98.84
2023-04-18T15:35:29.560Z,96.53
2023-04-18T15:37:57.361Z,97.44
2023-04-18T15:40:24.277Z,100.00
2023-04-18T15:42:53.562Z,96.70
2023-04-18T15:45:21.381Z,97.17
2023-04-18T15:47:48.311Z,94.22
2023-04-18T15:50:16.342Z,92.38
2023-04-18T15:52:44.035Z,95.57
2023-04-18T15:55:13.045Z,93.46
2023-04-18T15:57:40.705Z,94.90
2023-04-18T16:00:16.328Z,96.37
2023-04-18T16:02:46.822Z,95.99
2023-04-18T16:05:14.216Z,93.62
2023-04-18T16:07:42.268Z,96.58
2023-04-18T16:10:10.553Z,93.30
2023-04-18T16:12:38.658Z,93.32
2023-04-18T16:15:06.999Z,92.68
2023-04-18T16:17:34.113Z,91.93
2023-04-18T16:20:00.807Z,94.57
2023-04-18T16:22:27.450Z,98.49
2023-04-18T16:24:54.164Z,98.85
2023-04-18T16:27:21.311Z,99.42
2023-04-18T16:29:48.091Z,100.00
2023-04-18T16:32:14.774Z,99.50
2023-04-18T16:34:41.480Z,99.87
2023-04-18T16:37:08.244Z,99.39
2023-04-18T16:39:34.849Z,98.10
2023-04-18T16:42:02.898Z,97.54
2023-04-18T16:44:30.756Z,99.49
2023-04-18T16:46:57.509Z,100.00
2023-04-18T16:49:24.368Z,100.00
2023-04-18T16:51:51.985Z,100.00
2023-04-18T16:54:18.699Z,99.73
2023-04-18T16:56:45.503Z,100.00
2023-04-18T16:59:12.306Z,99.19
2023-04-18T17:01:39.148Z,99.89
2023-04-18T17:04:06.002Z,100.00
2023-04-18T17:06:32.805Z,100.00
2023-04-18T17:08:59.525Z,100.00
2023-04-18T17:11:26.541Z,100.00
2023-04-18T17:13:53.432Z,100.00
2023-04-18T17:16:20.341Z,100.00
2023-04-18T17:18:47.080Z,100.00
2023-04-18T17:21:13.819Z,100.00
2023-04-18T17:23:42.280Z,100.00
2023-04-18T17:26:09.980Z,100.00
2023-04-18T17:28:36.842Z,100.00
2023-04-18T17:31:03.768Z,100.00
2023-04-18T17:33:31.296Z,100.00
2023-04-18T17:35:58.324Z,100.00
2023-04-18T17:38:25.147Z,100.00
2023-04-18T17:41:02.043Z,100.00
2023-04-18T17:43:28.857Z,100.00
2023-04-18T17:45:56.845Z,100.00
2023-04-18T17:48:23.665Z,100.00
2023-04-18T17:50:50.386Z,100.00
2023-04-18T17:53:18.078Z,100.00
2023-04-18T17:55:46.784Z,100.00
2023-04-18T17:58:13.582Z,100.00
2023-04-18T18:00:40.404Z,100.00
2023-04-18T18:03:09.293Z,100.00
2023-04-18T18:05:36.062Z,100.00
2023-04-18T18:08:02.696Z,100.00
2023-04-18T18:10:29.929Z,100.00
2023-04-18T18:12:56.720Z,100.00
2023-04-18T18:15:24.376Z,100.00
2023-04-18T18:17:51.872Z,100.00
2023-04-18T18:20:19.093Z,100.00
2023-04-18T18:22:46.253Z,100.00
2023-04-18T18:25:13.317Z,100.00
2023-04-18T18:27:40.773Z,100.00
2023-04-18T18:30:08.237Z,100.00
2023-04-18T18:32:35.117Z,100.00
2023-04-18T18:35:02.667Z,100.00
2023-04-18T18:37:29.389Z,100.00
2023-04-18T18:39:57.081Z,100.00
2023-04-18T18:42:23.809Z,100.00
2023-04-18T18:44:50.531Z,100.00
2023-04-18T18:47:20.011Z,100.00
2023-04-18T18:49:48.868Z,100.00
2023-04-18T18:52:16.020Z,100.00
2023-04-18T18:54:42.824Z,100.00
2023-04-18T18:57:09.533Z,100.00
2023-04-18T18:59:36.229Z,100.00
2023-04-18T19:02:04.474Z,100.00
2023-04-18T19:04:31.516Z,100.00
2023-04-18T19:06:58.276Z,100.00
2023-04-18T19:09:25.031Z,100.00
2023-04-18T19:11:51.743Z,100.00
2023-04-18T19:14:18.384Z,100.00
2023-04-18T19:16:45.155Z,100.00
2023-04-18T19:19:12.054Z,100.00
2023-04-18T19:21:42.743Z,100.00
2023-04-18T19:24:11.201Z,100.00
2023-04-18T19:26:37.879Z,100.00
2023-04-18T19:29:06.579Z,100.00
2023-04-18T19:31:34.354Z,100.00
2023-04-18T19:34:01.701Z,100.00
2023-04-18T19:36:28.384Z,100.00
2023-04-18T19:38:55.053Z,100.00
2023-04-18T19:41:21.824Z,100.00
2023-04-18T19:43:48.577Z,100.00
2023-04-18T19:46:15.450Z,100.00
2023-04-18T19:48:42.168Z,100.00
2023-04-18T19:51:08.906Z,100.00
2023-04-18T19:53:35.656Z,100.00
2023-04-18T19:56:02.340Z,100.00
2023-04-18T19:58:48.857Z,100.00
2023-04-18T20:01:17.695Z,100.00
2023-04-18T20:03:44.693Z,100.00
2023-04-18T20:06:11.620Z,100.00
2023-04-18T20:08:43.128Z,100.00
2023-04-18T20:11:11.135Z,100.00
2023-04-18T20:13:38.443Z,100.00
2023-04-18T20:16:06.386Z,100.00
2023-04-18T20:18:36.244Z,100.00
2023-04-18T20:21:04.082Z,100.00
2023-04-18T20:23:31.065Z,100.00
2023-04-18T20:25:57.753Z,100.00
2023-04-18T20:28:24.535Z,100.00
2023-04-18T20:30:51.234Z,100.00
2023-04-18T20:33:18.230Z,100.00
2023-04-18T20:35:44.910Z,100.00
2023-04-18T20:38:12.283Z,100.00
2023-04-18T20:40:39.060Z,100.00
2023-04-18T20:43:08.005Z,100.00
2023-04-18T20:45:37.574Z,100.00
2023-04-18T20:48:04.736Z,100.00
2023-04-18T20:50:31.482Z,100.00
2023-04-18T20:53:00.387Z,100.00
2023-04-18T20:55:27.420Z,100.00
2023-04-18T20:57:54.188Z,100.00
2023-04-18T21:00:20.970Z,100.00
2023-04-18T21:02:47.796Z,100.00
2023-04-18T21:05:14.590Z,100.00
2023-04-18T21:07:41.294Z,100.00
2023-04-18T21:10:08.296Z,100.00
2023-04-18T21:12:34.934Z,100.00
2023-04-18T21:15:01.823Z,100.00
2023-04-18T21:17:28.553Z,100.00
2023-04-18T21:19:55.776Z,100.00
2023-04-18T21:22:22.390Z,100.00
2023-04-18T21:24:49.364Z,100.00
2023-04-18T21:27:16.260Z,100.00
2023-04-18T21:29:42.996Z,100.00
2023-04-18T21:32:09.686Z,100.00
2023-04-18T21:34:36.625Z,100.00
2023-04-18T21:37:03.683Z,100.00
2023-04-18T21:39:30.925Z,100.00
2023-04-18T21:41:58.071Z,100.00
2023-04-18T21:44:24.787Z,100.00
2023-04-18T21:46:51.492Z,100.00
2023-04-18T21:49:18.198Z,100.00
2023-04-18T21:51:45.412Z,100.00
2023-04-18T21:54:12.532Z,100.00
2023-04-18T21:56:39.387Z,100.00
2023-04-18T21:59:06.055Z,100.00
2023-04-18T22:01:38.124Z,100.00
2023-04-18T22:04:05.879Z,100.00
2023-04-18T22:06:33.381Z,100.00
2023-04-18T22:09:01.023Z,100.00
2023-04-18T22:11:28.512Z,100.00
2023-04-18T22:13:55.244Z,100.00
2023-04-18T22:16:22.110Z,100.00
2023-04-18T22:18:51.565Z,100.00
2023-04-18T22:21:18.292Z,100.00
2023-04-18T22:23:45.672Z,100.00
2023-04-18T22:26:12.433Z,100.00
2023-04-18T22:28:39.148Z,100.00
2023-04-18T22:31:05.941Z,100.00
2023-04-18T22:33:32.621Z,100.00
2023-04-18T22:35:59.319Z,100.00
2023-04-18T22:38:26.007Z,100.00
2023-04-18T22:40:52.976Z,100.00
2023-04-18T22:43:22.957Z,100.00
2023-04-18T22:45:49.978Z,100.00
2023-04-18T22:48:17.155Z,100.00
2023-04-18T22:50:44.018Z,100.00
2023-04-18T22:53:11.221Z,100.00
2023-04-18T22:55:39.631Z,100.00
2023-04-18T22:58:07.000Z,100.00
2023-04-18T23:00:33.785Z,100.00
2023-04-18T23:03:01.059Z,100.00
2023-04-18T23:05:28.826Z,100.00
2023-04-18T23:07:57.738Z,100.00
2023-04-18T23:10:25.836Z,100.00
2023-04-18T23:12:52.591Z,100.00
2023-04-18T23:15:22.559Z,100.00
2023-04-18T23:17:51.839Z,100.00
2023-04-18T23:20:19.093Z,100.00
2023-04-18T23:22:46.621Z,100.00
2023-04-18T23:25:13.281Z,100.00
2023-04-18T23:27:40.230Z,100.00
2023-04-18T23:30:07.577Z,100.00
2023-04-18T23:32:34.368Z,100.00
2023-04-18T23:35:04.276Z,100.00
2023-04-18T23:37:31.434Z,100.00
2023-04-18T23:39:59.467Z,100.00
2023-04-18T23:42:26.197Z,100.00
2023-04-18T23:44:52.874Z,100.00
2023-04-18T23:47:19.639Z,100.00
2023-04-18T23:49:46.395Z,100.00
2023-04-18T23:52:13.120Z,100.00
2023-04-18T23:54:39.828Z,100.00
2023-04-18T23:57:06.532Z,100.00
2023-04-18T23:59:33.166Z,100.00
